Time;durP1;ratioP1;P1;durP2;ratioP2;P2;SDS_P1;SDS_P2;PMS_P1;PMS_P2;Temp;Humidity;BMP_temperature;BMP_pressure;BME280_temperature;BME280_humidity;BME280_pressure;Samples;Min_cycle;Max_cycle;Signal;HPM_P1;HPM_P2
2022/08/24 00:00:56;;;;;;;6.30;3.27;;;19.30;99.90;;;;;;4947114;29;20024;-68
2022/08/24 00:03:22;;;;;;;4.80;2.67;;;19.30;99.90;;;;;;4946547;29;20031;-67
2022/08/24 00:05:48;;;;;;;2.80;2.53;;;19.20;99.90;;;;;;4946959;29;20275;-68
2022/08/24 00:08:14;;;;;;;5.80;3.15;;;19.20;99.90;;;;;;4947139;29;20031;-68
2022/08/24 00:10:40;;;;;;;3.50;2.77;;;19.20;99.90;;;;;;4946972;29;20094;-67
2022/08/24 00:13:05;;;;;;;3.97;3.07;;;19.20;99.90;;;;;;4946797;29;20043;-67
2022/08/24 00:15:32;;;;;;;4.37;2.90;;;19.20;99.90;;;;;;4946890;29;20098;-68
2022/08/24 00:17:58;;;;;;;4.18;3.03;;;19.10;99.90;;;;;;4946387;29;20223;-68
2022/08/24 00:20:24;;;;;;;4.93;2.85;;;19.10;99.90;;;;;;4946160;29;20051;-67
2022/08/24 00:22:50;;;;;;;4.57;3.00;;;19.10;99.90;;;;;;4946455;29;20091;-68
2022/08/24 00:25:18;;;;;;;3.33;2.95;;;19.00;99.90;;;;;;4946755;29;20222;-67
2022/08/24 00:27:44;;;;;;;5.55;3.45;;;19.00;99.90;;;;;;4946678;29;20098;-68
2022/08/24 00:30:14;;;;;;;5.18;3.22;;;19.00;99.90;;;;;;4946629;29;20024;-67
2022/08/24 00:32:41;;;;;;;6.25;3.63;;;19.00;99.90;;;;;;4946145;29;20039;-66
2022/08/24 00:35:07;;;;;;;5.15;3.15;;;18.90;99.90;;;;;;4946396;29;20345;-67
2022/08/24 00:37:34;;;;;;;4.47;2.83;;;18.80;99.90;;;;;;4946286;29;20422;-67
2022/08/24 00:39:59;;;;;;;6.68;3.33;;;18.80;99.90;;;;;;4946470;29;20230;-67
2022/08/24 00:42:25;;;;;;;5.10;3.10;;;18.80;99.90;;;;;;4946371;29;20046;-68
2022/08/24 00:44:51;;;;;;;3.87;2.97;;;18.80;99.90;;;;;;4960891;29;20093;-67
2022/08/24 00:47:24;;;;;;;4.83;2.80;;;18.70;99.90;;;;;;4945951;29;20023;-67
2022/08/24 00:50:05;;;;;;;4.40;2.90;;;18.70;99.90;;;;;;4960790;28;20378;-68
2022/08/24 00:52:45;;;;;;;7.53;3.13;;;18.60;99.90;;;;;;4946054;29;20094;-67
2022/08/24 00:55:18;;;;;;;5.75;3.13;;;18.60;99.90;;;;;;4960688;29;20024;-67
2022/08/24 00:57:51;;;;;;;5.45;3.00;;;18.60;99.90;;;;;;4960236;28;20039;-67
2022/08/24 01:00:21;;;;;;;5.03;2.97;;;18.50;99.90;;;;;;4959336;28;20250;-67
2022/08/24 01:02:52;;;;;;;6.05;3.08;;;18.50;99.90;;;;;;4945646;29;20031;-67
2022/08/24 01:05:18;;;;;;;6.20;3.42;;;18.50;99.90;;;;;;4960669;29;20034;-67
2022/08/24 01:07:43;;;;;;;3.83;3.33;;;18.40;99.90;;;;;;4945938;29;20059;-68
2022/08/24 01:10:15;;;;;;;5.03;2.87;;;18.40;99.90;;;;;;4945911;29;20544;-67
2022/08/24 01:12:44;;;;;;;5.30;3.40;;;18.30;99.90;;;;;;4960215;29;20032;-68
2022/08/24 01:15:10;;;;;;;3.75;3.10;;;18.20;99.90;;;;;;4960510;29;20372;-68
2022/08/24 01:20:25;;;;;;;4.07;3.03;;;18.20;99.90;;;;;;4953522;29;20039;-67
2022/08/24 01:23:14;;;;;;;6.90;3.40;;;18.20;99.90;;;;;;4945238;29;20106;-68
2022/08/24 01:25:41;;;;;;;5.72;3.20;;;18.10;99.90;;;;;;4960330;29;20091;-67
2022/08/24 01:28:13;;;;;;;3.55;2.88;;;18.10;99.90;;;;;;4945379;29;20047;-68
2022/08/24 01:30:40;;;;;;;4.15;3.50;;;18.10;99.90;;;;;;4960071;29;20208;-68
2022/08/24 01:33:07;;;;;;;6.15;3.13;;;18.10;99.90;;;;;;4944077;29;20015;-67
2022/08/24 01:35:35;;;;;;;5.90;3.30;;;18.10;99.90;;;;;;4945884;29;20107;-68
2022/08/24 01:38:03;;;;;;;3.70;3.03;;;18.00;99.90;;;;;;4985126;23;20053;-74
2022/08/24 01:40:45;;;;;;;4.93;3.10;;;17.90;99.90;;;;;;4981227;28;20270;-74
2022/08/24 01:43:11;;;;;;;4.85;3.20;;;17.90;99.90;;;;;;4954961;28;20313;-73
2022/08/24 01:45:37;;;;;;;4.18;2.92;;;17.90;99.90;;;;;;4980070;28;20031;-74
2022/08/24 01:48:03;;;;;;;4.90;3.42;;;17.80;99.90;;;;;;4937186;29;20298;-74
2022/08/24 01:50:30;;;;;;;4.43;3.60;;;17.70;99.90;;;;;;4961650;29;20054;-74
2022/08/24 01:52:57;;;;;;;9.60;3.72;;;17.70;99.90;;;;;;4943629;29;20026;-74
2022/08/24 01:55:24;;;;;;;4.43;3.40;;;17.70;99.90;;;;;;4944073;29;20106;-74
2022/08/24 01:57:49;;;;;;;4.68;3.58;;;17.60;99.90;;;;;;4944934;29;20067;-74
2022/08/24 02:00:15;;;;;;;6.00;3.40;;;17.50;99.90;;;;;;4955041;28;20023;-74
2022/08/24 02:02:42;;;;;;;5.20;3.27;;;17.50;99.90;;;;;;4978639;28;20023;-74
2022/08/24 02:05:09;;;;;;;6.13;3.40;;;17.50;99.90;;;;;;4962935;29;20019;-74
2022/08/24 02:07:35;;;;;;;4.93;3.30;;;17.50;99.90;;;;;;4962563;29;20034;-75
2022/08/24 02:10:01;;;;;;;6.37;4.20;;;17.50;99.90;;;;;;4964068;28;20026;-75
2022/08/24 02:12:26;;;;;;;6.60;4.37;;;17.50;99.90;;;;;;4978985;28;20023;-74
2022/08/24 02:14:52;;;;;;;4.57;3.50;;;17.40;99.90;;;;;;4978885;28;20438;-74
2022/08/24 02:17:18;;;;;;;4.37;3.83;;;17.40;99.90;;;;;;4963674;28;20219;-74
2022/08/24 02:19:45;;;;;;;5.82;3.90;;;17.30;99.90;;;;;;4962793;29;20055;-74
2022/08/24 02:22:10;;;;;;;5.20;3.63;;;17.30;99.90;;;;;;4963633;28;20442;-74
2022/08/24 02:24:36;;;;;;;10.27;5.77;;;17.30;99.90;;;;;;4978826;28;20263;-74
2022/08/24 02:27:02;;;;;;;7.63;4.47;;;17.30;99.90;;;;;;4978840;28;20059;-74
2022/08/24 02:29:28;;;;;;;5.43;4.07;;;17.30;99.90;;;;;;4963794;28;20031;-74
2022/08/24 02:31:54;;;;;;;5.63;4.32;;;17.20;99.90;;;;;;4962582;28;20030;-74
2022/08/24 02:34:20;;;;;;;5.60;4.23;;;17.20;99.90;;;;;;4946355;29;20054;-74
2022/08/24 02:36:46;;;;;;;5.75;4.97;;;17.10;99.90;;;;;;4963626;28;20046;-74
2022/08/24 02:39:11;;;;;;;7.03;5.60;;;17.10;99.90;;;;;;4962675;28;20318;-74
2022/08/24 02:41:37;;;;;;;6.83;5.00;;;17.10;99.90;;;;;;4962657;29;20402;-73
2022/08/24 02:44:03;;;;;;;7.60;5.37;;;17.00;99.90;;;;;;4962443;28;20023;-74
2022/08/24 02:46:29;;;;;;;8.98;5.60;;;17.00;99.90;;;;;;4962752;28;20019;-74
2022/08/24 02:48:58;;;;;;;6.18;5.00;;;16.90;99.90;;;;;;4962648;28;20301;-74
2022/08/24 02:51:33;;;;;;;7.47;5.85;;;16.90;99.90;;;;;;4946814;29;20034;-74
2022/08/24 02:54:00;;;;;;;9.60;5.85;;;16.90;99.90;;;;;;4962179;28;20019;-74
2022/08/24 02:56:28;;;;;;;10.93;6.35;;;16.90;99.90;;;;;;4962586;29;20051;-74
2022/08/24 02:58:55;;;;;;;10.52;6.13;;;16.90;99.90;;;;;;4961858;28;20019;-74
2022/08/24 03:01:21;;;;;;;11.77;6.20;;;16.80;99.90;;;;;;4962398;28;20066;-74
2022/08/24 03:03:47;;;;;;;9.13;6.20;;;16.80;99.90;;;;;;4963232;28;20023;-74
2022/08/24 03:06:13;;;;;;;9.00;6.07;;;16.80;99.90;;;;;;4962472;29;20038;-75
2022/08/24 03:08:38;;;;;;;7.37;5.67;;;16.70;99.90;;;;;;4963167;28;20016;-75
2022/08/24 03:11:04;;;;;;;8.10;5.83;;;16.70;99.90;;;;;;4963510;28;20019;-75
2022/08/24 03:13:30;;;;;;;8.80;5.77;;;16.70;99.90;;;;;;4965446;28;20066;-75
2022/08/24 03:15:57;;;;;;;9.00;5.67;;;16.60;99.90;;;;;;4965856;28;20087;-75
2022/08/24 03:18:25;;;;;;;9.70;6.75;;;16.60;99.90;;;;;;4965966;28;20345;-75
2022/08/24 03:20:54;;;;;;;14.13;6.93;;;16.60;99.90;;;;;;4965916;29;20034;-75
2022/08/24 03:23:20;;;;;;;13.30;8.68;;;16.60;99.90;;;;;;4964391;29;20023;-74
2022/08/24 03:25:45;;;;;;;16.13;10.27;;;16.60;99.90;;;;;;4966882;28;20251;-74
2022/08/24 03:28:11;;;;;;;14.90;10.27;;;16.60;99.90;;;;;;4966737;28;20066;-74
2022/08/24 03:30:38;;;;;;;15.73;10.20;;;16.60;99.90;;;;;;4965720;29;20098;-74
2022/08/24 03:33:05;;;;;;;15.77;10.40;;;16.60;99.90;;;;;;4966465;28;20038;-74
2022/08/24 03:35:32;;;;;;;11.93;9.15;;;16.60;99.90;;;;;;4965675;28;20027;-74
2022/08/24 03:37:59;;;;;;;14.32;9.35;;;16.50;99.90;;;;;;4966280;28;20355;-74
2022/08/24 03:40:24;;;;;;;13.32;8.82;;;16.50;99.90;;;;;;4965628;28;20027;-73
2022/08/24 03:42:50;;;;;;;15.03;9.40;;;16.50;99.90;;;;;;4965183;28;20033;-74
2022/08/24 03:45:16;;;;;;;17.43;11.83;;;16.50;99.90;;;;;;4966568;28;20073;-75
2022/08/24 03:47:42;;;;;;;18.43;12.63;;;16.50;99.90;;;;;;4966528;28;20326;-75
2022/08/24 03:50:08;;;;;;;21.43;11.47;;;16.50;99.90;;;;;;4965248;29;20043;-75
2022/08/24 03:52:34;;;;;;;18.63;12.45;;;16.40;99.90;;;;;;4965184;29;20061;-75
2022/08/24 03:55:04;;;;;;;18.97;12.00;;;16.40;99.90;;;;;;4966054;28;20303;-74
2022/08/24 03:57:30;;;;;;;17.25;11.98;;;16.40;99.90;;;;;;4965373;28;20026;-74
2022/08/24 03:59:56;;;;;;;18.47;12.27;;;16.40;99.90;;;;;;4964327;29;20050;-74
2022/08/24 04:02:22;;;;;;;17.33;12.43;;;16.30;99.90;;;;;;4966163;28;20275;-74
2022/08/24 04:04:47;;;;;;;21.73;11.73;;;16.30;99.90;;;;;;4965995;28;20094;-76
2022/08/24 04:07:13;;;;;;;18.70;11.93;;;16.30;99.90;;;;;;4966194;28;20026;-76
2022/08/24 04:09:39;;;;;;;18.87;10.53;;;16.30;99.90;;;;;;4966068;28;20026;-76
2022/08/24 04:12:05;;;;;;;17.10;9.87;;;16.20;99.90;;;;;;4966049;28;20050;-75
2022/08/24 04:14:31;;;;;;;13.77;8.40;;;16.20;99.90;;;;;;4965628;28;20027;-76
2022/08/24 04:16:57;;;;;;;13.30;7.53;;;16.20;99.90;;;;;;4965897;28;20034;-76
2022/08/24 04:19:22;;;;;;;8.43;6.90;;;16.20;99.90;;;;;;4965974;28;20059;-75
2022/08/24 04:21:48;;;;;;;11.37;7.17;;;16.20;99.90;;;;;;4964990;28;20234;-76
2022/08/24 04:24:14;;;;;;;7.73;5.43;;;16.20;99.90;;;;;;4959600;28;20382;-77
2022/08/24 04:26:40;;;;;;;7.70;5.80;;;16.10;99.90;;;;;;4956094;28;20023;-77
2022/08/24 04:29:08;;;;;;;8.95;5.50;;;16.10;99.90;;;;;;4979215;28;20030;-77
2022/08/24 04:31:35;;;;;;;5.85;5.25;;;16.10;99.90;;;;;;4962123;28;20039;-77
2022/08/24 04:34:01;;;;;;;10.35;5.63;;;16.10;99.90;;;;;;4975771;28;20069;-76
2022/08/24 04:36:27;;;;;;;8.67;5.07;;;16.10;99.90;;;;;;4963063;28;20303;-76
2022/08/24 04:38:53;;;;;;;6.00;5.03;;;16.10;99.90;;;;;;4957089;28;20123;-77
2022/08/24 04:41:19;;;;;;;9.43;5.47;;;16.00;99.90;;;;;;4980446;28;20078;-77
2022/08/24 04:43:44;;;;;;;9.30;6.00;;;16.10;99.90;;;;;;4964150;28;20019;-77
2022/08/24 04:46:15;;;;;;;12.53;8.97;;;16.00;99.90;;;;;;4964454;28;20087;-77
2022/08/24 04:48:42;;;;;;;19.13;11.98;;;16.10;99.90;;;;;;4964348;28;20029;-77
2022/08/24 04:51:10;;;;;;;20.42;12.63;;;16.10;99.90;;;;;;4964458;28;20031;-77
2022/08/24 04:53:36;;;;;;;19.23;13.02;;;16.00;99.90;;;;;;4944278;29;20030;-77
2022/08/24 04:56:02;;;;;;;21.87;13.10;;;16.00;99.90;;;;;;4964083;29;20195;-77
2022/08/24 04:58:28;;;;;;;21.23;12.93;;;16.10;99.90;;;;;;4945671;29;20039;-76
2022/08/24 05:00:54;;;;;;;20.10;13.45;;;16.10;99.90;;;;;;4957832;29;20083;-77
2022/08/24 05:03:21;;;;;;;21.17;13.23;;;16.00;99.90;;;;;;4976799;28;20027;-77
2022/08/24 05:05:48;;;;;;;23.02;13.55;;;16.00;99.90;;;;;;4948973;29;20043;-79
2022/08/24 05:08:14;;;;;;;23.10;14.18;;;16.00;99.90;;;;;;4961894;28;20030;-79
2022/08/24 05:10:42;;;;;;;23.30;14.67;;;16.10;99.90;;;;;;4953174;29;20042;-77
2022/08/24 05:13:07;;;;;;;23.48;14.77;;;16.10;99.90;;;;;;4960497;28;20027;-78
2022/08/24 05:15:34;;;;;;;24.30;15.70;;;16.10;99.90;;;;;;4979679;28;20039;-77
2022/08/24 05:18:01;;;;;;;23.42;14.73;;;16.10;99.90;;;;;;4958329;29;20043;-78
2022/08/24 05:20:27;;;;;;;23.63;13.65;;;16.10;99.90;;;;;;4960457;29;20035;-79
2022/08/24 05:22:53;;;;;;;19.27;12.35;;;16.20;99.90;;;;;;4960318;28;20036;-78
2022/08/24 05:25:19;;;;;;;20.58;12.93;;;16.20;99.90;;;;;;4947320;29;20098;-79
2022/08/24 05:27:45;;;;;;;19.00;12.43;;;16.20;99.90;;;;;;4979453;28;20211;-78
2022/08/24 05:30:11;;;;;;;17.83;11.30;;;16.30;99.90;;;;;;4963633;29;20047;-80
2022/08/24 05:32:37;;;;;;;17.40;11.95;;;16.30;99.90;;;;;;4963389;28;20049;-79
2022/08/24 05:35:04;;;;;;;18.50;11.13;;;16.40;99.90;;;;;;4962830;28;20342;-79
2022/08/24 05:37:33;;;;;;;19.00;10.90;;;16.40;99.90;;;;;;4962836;28;20234;-78
2022/08/24 05:40:02;;;;;;;19.88;13.02;;;16.50;99.90;;;;;;4963391;29;20027;-78
2022/08/24 05:42:27;;;;;;;20.63;12.18;;;16.50;99.90;;;;;;4979269;28;20057;-79
2022/08/24 05:44:53;;;;;;;18.80;11.87;;;16.60;99.90;;;;;;4979285;28;20027;-79
2022/08/24 05:47:19;;;;;;;17.93;11.10;;;16.70;99.90;;;;;;4947260;29;20042;-79
2022/08/24 05:49:45;;;;;;;17.57;10.93;;;16.70;99.90;;;;;;4979429;28;20325;-79
2022/08/24 05:52:11;;;;;;;14.23;9.83;;;16.80;99.90;;;;;;4963325;28;20050;-78
2022/08/24 05:54:37;;;;;;;15.65;11.13;;;16.80;99.90;;;;;;4978600;28;20023;-78
2022/08/24 05:57:03;;;;;;;14.70;9.67;;;16.90;99.90;;;;;;4963130;28;20043;-78
2022/08/24 05:59:30;;;;;;;17.38;9.23;;;16.90;99.90;;;;;;4963143;28;20094;-79
2022/08/24 06:01:55;;;;;;;16.20;9.68;;;17.00;99.90;;;;;;4962323;29;20037;-78
2022/08/24 06:04:21;;;;;;;18.20;9.63;;;17.10;99.90;;;;;;4963869;28;20326;-79
2022/08/24 06:06:48;;;;;;;13.30;8.13;;;17.10;99.90;;;;;;4964004;28;20034;-79
2022/08/24 06:09:14;;;;;;;13.85;8.15;;;17.20;99.90;;;;;;4962702;29;20223;-78
2022/08/24 06:11:40;;;;;;;13.47;7.60;;;17.30;99.90;;;;;;4962877;28;20030;-78
2022/08/24 06:14:14;;;;;;;10.83;7.13;;;17.30;99.90;;;;;;4931145;29;20034;-79
2022/08/24 06:16:43;;;;;;;9.60;7.38;;;17.40;99.90;;;;;;4932813;28;20026;-74
2022/08/24 06:19:10;;;;;;;8.10;6.40;;;17.50;99.90;;;;;;4948180;29;20050;-74
2022/08/24 06:21:36;;;;;;;8.80;6.60;;;17.60;99.90;;;;;;4949103;29;20050;-73
2022/08/24 06:24:03;;;;;;;10.50;5.57;;;17.60;99.90;;;;;;4964862;28;20078;-74
2022/08/24 06:29:13;;;;;;;8.82;5.82;;;17.80;99.90;;;;;;4965105;28;20357;-74
2022/08/24 06:31:44;;;;;;;6.57;5.97;;;17.90;99.90;;;;;;4966740;28;20031;-74
2022/08/24 06:34:11;;;;;;;9.27;6.10;;;18.00;99.90;;;;;;4964874;28;20054;-74
2022/08/24 06:36:37;;;;;;;8.13;5.95;;;18.10;99.90;;;;;;4965782;28;20069;-74
2022/08/24 06:39:03;;;;;;;10.40;6.33;;;18.20;99.90;;;;;;4965421;28;20035;-74
2022/08/24 06:41:29;;;;;;;12.38;6.88;;;18.20;99.90;;;;;;4964762;28;20134;-73
2022/08/24 06:43:55;;;;;;;6.97;5.60;;;18.30;99.90;;;;;;4965011;28;20035;-74
2022/08/24 06:46:21;;;;;;;7.17;6.10;;;18.40;99.90;;;;;;4966577;28;20050;-74
2022/08/24 06:48:47;;;;;;;9.27;5.80;;;18.40;99.90;;;;;;4969619;28;20038;-74
2022/08/24 06:51:15;;;;;;;8.73;5.43;;;18.50;99.90;;;;;;4969300;29;20039;-73
2022/08/24 06:53:41;;;;;;;10.68;5.95;;;18.60;99.90;;;;;;4929351;29;20031;-73
2022/08/24 06:56:07;;;;;;;8.30;5.28;;;18.60;99.90;;;;;;4961881;28;20023;-73
2022/08/24 06:58:34;;;;;;;14.00;7.73;;;18.70;99.90;;;;;;4971139;28;20045;-73
2022/08/24 07:01:15;;;;;;;14.68;8.70;;;18.80;99.90;;;;;;4966140;29;20030;-71
2022/08/24 07:03:41;;;;;;;12.00;8.15;;;18.80;99.90;;;;;;4966758;29;20027;-70
2022/08/24 07:06:07;;;;;;;12.52;8.70;;;18.90;99.90;;;;;;4966952;28;20019;-70
2022/08/24 07:08:33;;;;;;;12.73;8.15;;;19.00;99.90;;;;;;4967219;28;20031;-70
2022/08/24 07:10:58;;;;;;;12.70;7.93;;;19.10;99.90;;;;;;4965849;29;20226;-70
2022/08/24 07:13:24;;;;;;;13.83;8.23;;;19.10;99.90;;;;;;4965851;29;20465;-70
2022/08/24 07:15:51;;;;;;;14.03;7.63;;;19.20;99.90;;;;;;4966684;28;20023;-70
2022/08/24 07:18:17;;;;;;;;;;;19.30;99.90;;;;;;4950475;29;20133;-69
2022/08/24 07:20:43;;;;;;;13.10;7.55;;;19.30;99.90;;;;;;4965941;28;19914;-69
2022/08/24 07:23:11;;;;;;;11.23;6.60;;;19.40;99.90;;;;;;4964299;28;20054;-70
2022/08/24 07:25:37;;;;;;;9.82;6.82;;;19.40;99.90;;;;;;4965686;29;20027;-70
2022/08/24 07:28:02;;;;;;;10.00;6.10;;;19.50;99.90;;;;;;4966833;28;20095;-70
2022/08/24 07:30:29;;;;;;;10.23;6.93;;;19.60;99.90;;;;;;4966538;28;20047;-70
2022/08/24 07:32:58;;;;;;;10.18;6.60;;;19.60;99.90;;;;;;4966468;28;20023;-70
2022/08/24 07:35:25;;;;;;;9.55;7.25;;;19.70;99.90;;;;;;4949779;29;20031;-69
2022/08/24 07:37:51;;;;;;;9.25;6.25;;;19.80;99.90;;;;;;4965484;28;20348;-70
2022/08/24 07:40:17;;;;;;;14.23;7.85;;;19.90;99.90;;;;;;4965660;29;20038;-70
2022/08/24 07:42:47;;;;;;;10.75;7.53;;;19.90;99.90;;;;;;4966347;28;20035;-70
2022/08/24 07:45:13;;;;;;;10.15;6.75;;;20.00;99.90;;;;;;4965011;28;20023;-71
2022/08/24 07:47:39;;;;;;;10.63;6.40;;;20.10;99.90;;;;;;4966189;28;20046;-69
2022/08/24 07:50:05;;;;;;;11.20;6.17;;;20.20;99.90;;;;;;4981225;28;20023;-69
2022/08/24 07:52:31;;;;;;;9.98;6.75;;;20.30;99.90;;;;;;4965266;29;20486;-70
2022/08/24 07:54:57;;;;;;;8.00;5.90;;;20.40;99.90;;;;;;4977746;28;20033;-69
2022/08/24 07:57:23;;;;;;;8.33;5.47;;;20.50;99.90;;;;;;4985596;28;20038;-70
2022/08/24 07:59:49;;;;;;;9.90;5.90;;;20.60;99.90;;;;;;4983084;28;20039;-70
2022/08/24 08:02:15;;;;;;;7.77;5.57;;;20.60;99.90;;;;;;4965508;28;20212;-70
2022/08/24 08:04:41;;;;;;;;;;;20.70;99.90;;;;;;4966152;28;20019;-69
2022/08/24 08:07:07;;;;;;;8.43;6.25;;;20.80;99.90;;;;;;4966044;28;19970;-69
2022/08/24 08:09:35;;;;;;;10.05;6.57;;;20.90;99.90;;;;;;4965009;29;20059;-71
2022/08/24 08:12:02;;;;;;;7.25;5.15;;;20.90;99.90;;;;;;4964713;29;20035;-70
2022/08/24 08:14:27;;;;;;;5.38;4.72;;;21.00;99.90;;;;;;4965298;28;20094;-70
2022/08/24 08:16:53;;;;;;;7.07;5.67;;;21.10;99.90;;;;;;4965762;28;20035;-69
2022/08/24 08:19:19;;;;;;;6.82;5.75;;;21.20;99.90;;;;;;4965762;28;20016;-70
2022/08/24 08:24:32;;;;;;;8.87;5.30;;;21.30;99.90;;;;;;4961266;28;20022;-69
2022/08/24 08:26:58;;;;;;;8.05;5.50;;;21.40;99.90;;;;;;4965109;28;20062;-70
2022/08/24 08:29:24;;;;;;;8.00;5.33;;;21.40;99.90;;;;;;4965534;28;20031;-69
2022/08/24 08:31:51;;;;;;;6.30;4.82;;;21.50;99.90;;;;;;4965680;29;20034;-69
2022/08/24 08:34:17;;;;;;;;;;;21.60;99.90;;;;;;4964656;28;20102;-69
2022/08/24 08:36:43;;;;;;;7.35;4.97;;;21.70;99.90;;;;;;4980203;28;20259;-70
2022/08/24 08:39:11;;;;;;;7.13;5.88;;;21.80;99.90;;;;;;4965700;28;20039;-70
2022/08/24 08:41:49;;;;;;;6.45;4.68;;;21.80;99.90;;;;;;4964698;28;20030;-70
2022/08/24 08:45:00;;;;;;;7.65;5.07;;;21.90;99.90;;;;;;4964551;28;20330;-70
2022/08/24 08:48:03;;;;;;;7.35;4.70;;;22.10;99.90;;;;;;4966266;28;20027;-69
2022/08/24 08:50:41;;;;;;;6.35;5.00;;;22.20;99.90;;;;;;4961049;29;20024;-69
2022/08/24 08:54:02;;;;;;;7.07;4.82;;;22.30;99.90;;;;;;4950598;28;20031;-69
2022/08/24 08:56:34;;;;;;;5.15;4.32;;;22.40;99.90;;;;;;4933044;29;20430;-69
2022/08/24 08:59:44;;;;;;;5.32;4.00;;;22.60;99.90;;;;;;4964735;28;20098;-69
2022/08/24 09:02:18;;;;;;;6.18;3.75;;;22.70;99.90;;;;;;4963227;29;20024;-70
2022/08/24 09:04:57;;;;;;;7.05;4.75;;;22.80;99.90;;;;;;4964816;28;20050;-70
2022/08/24 09:07:25;;;;;;;5.03;3.92;;;22.90;99.90;;;;;;4965140;28;20027;-69
2022/08/24 09:10:22;;;;;;;7.10;4.57;;;23.00;99.90;;;;;;4964822;28;20230;-69
2022/08/24 09:13:15;;;;;;;5.82;3.88;;;23.00;99.90;;;;;;4964594;28;20102;-69
2022/08/24 09:16:05;;;;;;;7.60;4.00;;;23.10;99.90;;;;;;4963951;29;20027;-69
2022/08/24 09:18:55;;;;;;;4.35;3.60;;;23.20;99.90;;;;;;4964823;28;20023;-69
2022/08/24 09:22:02;;;;;;;4.80;4.03;;;23.30;99.90;;;;;;4963990;29;20023;-69
2022/08/24 09:24:52;;;;;;;4.35;3.40;;;23.40;99.90;;;;;;4963907;28;20074;-69
2022/08/24 09:27:51;;;;;;;4.15;3.50;;;23.40;99.90;;;;;;4963622;28;20031;-69
2022/08/24 09:30:23;;;;;;;3.95;3.55;;;23.60;99.90;;;;;;4962967;29;20031;-69
2022/08/24 09:33:02;;;;;;;4.70;3.65;;;23.70;99.90;;;;;;4963173;29;20031;-70
2022/08/24 09:35:59;;;;;;;4.78;3.80;;;23.80;99.90;;;;;;4964562;28;20027;-70
2022/08/24 09:38:47;;;;;;;7.13;3.60;;;23.90;99.90;;;;;;4964409;28;20019;-70
2022/08/24 09:41:56;;;;;;;5.55;3.75;;;24.00;99.90;;;;;;4963499;29;20055;-70
2022/08/24 09:44:37;;;;;;;7.38;3.72;;;24.10;99.90;;;;;;4965249;28;20030;-70
2022/08/24 09:47:47;;;;;;;4.85;3.78;;;24.20;99.90;;;;;;4962888;28;20536;-70
2022/08/24 09:50:34;;;;;;;5.40;3.55;;;24.30;99.90;;;;;;4963440;29;20345;-70
2022/08/24 09:53:42;;;;;;;4.90;4.13;;;24.40;99.90;;;;;;4963036;29;20159;-70
2022/08/24 09:56:33;;;;;;;4.77;3.50;;;24.50;99.90;;;;;;4963232;29;20118;-70
2022/08/24 09:59:32;;;;;;;4.93;3.72;;;24.50;99.90;;;;;;4963217;28;20037;-70
2022/08/24 10:02:09;;;;;;;4.38;3.50;;;24.50;99.90;;;;;;4957699;28;20215;-69
2022/08/24 10:05:01;;;;;;;3.97;3.20;;;24.40;99.90;;;;;;4958439;28;20314;-70
2022/08/24 10:07:49;;;;;;;3.72;2.80;;;24.50;99.90;;;;;;4961220;28;20031;-70
2022/08/24 10:10:43;;;;;;;5.78;3.92;;;24.50;99.90;;;;;;4945041;29;20062;-70
2022/08/24 10:13:25;;;;;;;5.60;3.47;;;24.70;99.90;;;;;;4943513;29;20222;-69
2022/08/24 10:16:14;;;;;;;5.25;3.80;;;24.90;99.90;;;;;;4954877;28;20027;-69
2022/08/24 10:19:00;;;;;;;6.63;3.13;;;25.00;99.90;;;;;;4961151;28;20027;-69
2022/08/24 10:21:36;;;;;;;6.90;3.13;;;25.10;99.90;;;;;;4976663;28;20031;-69
2022/08/24 10:24:34;;;;;;;5.95;3.50;;;25.10;99.90;;;;;;4963547;28;20023;-69
2022/08/24 10:27:44;;;;;;;3.53;2.90;;;25.30;99.90;;;;;;4956623;28;20019;-70
2022/08/24 10:30:39;;;;;;;3.17;2.88;;;25.40;99.90;;;;;;4943813;29;20039;-70
2022/08/24 10:33:52;;;;;;;4.53;3.08;;;25.40;99.90;;;;;;4975813;28;20262;-70
2022/08/24 10:36:44;;;;;;;4.95;3.33;;;25.50;99.90;;;;;;4954131;29;20027;-70
2022/08/24 10:39:42;;;;;;;3.80;2.80;;;25.50;99.90;;;;;;4971790;28;20226;-70
2022/08/24 10:46:10;;;;;;;5.20;2.83;;;25.80;99.90;;;;;;4923646;29;20043;-70
2022/08/24 10:49:23;;;;;;;3.97;2.78;;;25.90;99.90;;;;;;4924730;29;20038;-70
2022/08/24 10:52:07;;;;;;;3.33;2.85;;;26.20;99.90;;;;;;4967298;28;20093;-70
2022/08/24 10:54:34;;;;;;;2.92;2.65;;;26.40;99.90;;;;;;4952208;29;20031;-70
2022/08/24 10:57:08;;;;;;;3.80;2.25;;;26.50;99.90;;;;;;4961870;28;20023;-71
2022/08/24 10:59:56;;;;;;;4.60;2.90;;;26.60;99.90;;;;;;4962749;29;20094;-70
2022/08/24 11:02:36;;;;;;;2.70;2.50;;;26.80;99.90;;;;;;4962762;28;20024;-71
2022/08/24 11:05:08;;;;;;;3.13;2.55;;;27.00;99.90;;;;;;4962798;29;20027;-70
2022/08/24 11:07:35;;;;;;;4.00;3.13;;;27.20;99.90;;;;;;4978550;28;20230;-70
2022/08/24 11:10:07;;;;;;;5.22;2.85;;;27.30;99.90;;;;;;4962973;28;20027;-70
2022/08/24 11:12:44;;;;;;;3.83;2.90;;;27.20;99.90;;;;;;4946949;29;20106;-70
2022/08/24 11:15:26;;;;;;;3.63;3.15;;;27.20;99.90;;;;;;4947252;29;20038;-70
2022/08/24 11:17:57;;;;;;;4.45;2.65;;;27.30;99.90;;;;;;4963395;28;20102;-70
2022/08/24 11:20:42;;;;;;;4.10;2.70;;;27.20;99.90;;;;;;4963556;28;20031;-71
2022/08/24 11:23:08;;;;;;;5.05;2.90;;;27.20;99.90;;;;;;4963262;28;20074;-71
2022/08/24 11:25:35;;;;;;;;;;;27.30;99.90;;;;;;4964069;28;20042;-71
2022/08/24 11:28:24;;;;;;;3.83;3.20;;;27.50;99.90;;;;;;4963462;28;19915;-71
2022/08/24 11:30:50;;;;;;;3.88;3.17;;;27.50;99.90;;;;;;4961735;29;20334;-70
2022/08/24 11:33:46;;;;;;;4.72;2.72;;;27.50;99.40;;;;;;4963115;28;20027;-70
2022/08/24 11:36:19;;;;;;;4.47;2.78;;;27.50;99.90;;;;;;4965128;28;20041;-70
2022/08/24 11:38:46;;;;;;;3.00;2.58;;;27.60;99.90;;;;;;4966738;28;20330;-70
2022/08/24 11:41:27;;;;;;;3.05;2.65;;;27.80;99.80;;;;;;4966712;28;20101;-71
2022/08/24 11:44:50;;;;;;;4.25;3.13;;;27.90;96.60;;;;;;4966752;28;20352;-70
2022/08/24 11:47:38;;;;;;;3.83;2.90;;;28.10;99.90;;;;;;4958439;28;20042;-71
2022/08/24 11:51:03;;;;;;;3.72;3.05;;;28.10;95.70;;;;;;4966737;28;20038;-70
2022/08/24 11:54:01;;;;;;;3.95;2.50;;;28.10;99.00;;;;;;4930349;29;20279;-70
2022/08/24 11:56:29;;;;;;;3.72;2.50;;;28.20;96.80;;;;;;4975874;28;20047;-70
2022/08/24 11:59:00;;;;;;;3.13;2.63;;;28.20;99.10;;;;;;4965274;28;20027;-70
2022/08/24 12:01:38;;;;;;;3.67;2.97;;;28.00;94.30;;;;;;4965403;28;20073;-70
2022/08/24 12:04:20;;;;;;;4.55;2.60;;;27.80;96.30;;;;;;4965261;29;20031;-71
2022/08/24 12:07:06;;;;;;;3.35;2.30;;;27.80;95.30;;;;;;4966743;28;20046;-70
2022/08/24 12:10:00;;;;;;;3.10;2.67;;;27.70;96.70;;;;;;4967873;28;20023;-70
2022/08/24 12:12:42;;;;;;;4.72;3.13;;;28.00;98.10;;;;;;4965242;29;20046;-70
2022/08/24 12:15:34;;;;;;;5.05;3.15;;;28.30;98.80;;;;;;4966191;29;20135;-70
2022/08/24 12:18:28;;;;;;;3.35;2.63;;;28.40;94.70;;;;;;4965917;28;20030;-70
2022/08/24 12:20:54;;;;;;;3.65;2.83;;;28.40;97.50;;;;;;4968585;28;20222;-70
2022/08/24 12:23:36;;;;;;;7.13;3.75;;;28.50;94.40;;;;;;4964670;28;20086;-70
2022/08/24 12:27:01;;;;;;;3.55;2.65;;;28.50;93.90;;;;;;4964967;28;20018;-70
2022/08/24 12:29:34;;;;;;;4.00;3.28;;;28.90;93.50;;;;;;4957941;29;20063;-70
2022/08/24 12:32:13;;;;;;;6.05;3.08;;;29.10;92.90;;;;;;4964756;28;20038;-70
2022/08/24 12:34:59;;;;;;;6.47;3.13;;;29.70;91.30;;;;;;4961457;29;20223;-70
2022/08/24 12:37:37;;;;;;;5.07;3.20;;;29.40;89.60;;;;;;4930580;29;20034;-70
2022/08/24 12:40:21;;;;;;;3.17;2.47;;;29.10;89.70;;;;;;4945679;29;20482;-70
2022/08/24 12:43:09;;;;;;;4.88;2.60;;;28.80;91.40;;;;;;4945196;29;20024;-70
2022/08/24 12:45:35;;;;;;;3.28;2.88;;;28.70;91.40;;;;;;4944804;29;20090;-70
2022/08/24 12:48:02;;;;;;;;;;;28.60;91.80;;;;;;4945619;29;20083;-70
2022/08/24 12:50:41;;;;;;;5.03;3.10;;;29.20;91.70;;;;;;4946497;29;19922;-70
2022/08/24 12:53:44;;;;;;;4.50;2.92;;;30.90;89.40;;;;;;4945368;29;20066;-70
2022/08/24 12:56:42;;;;;;;4.35;2.80;;;32.80;80.30;;;;;;4946209;29;20044;-70
2022/08/24 12:59:11;;;;;;;3.08;2.63;;;34.40;71.00;;;;;;4945427;29;20031;-70
2022/08/24 13:01:42;;;;;;;5.32;3.20;;;35.40;67.00;;;;;;4950710;29;20023;-70
2022/08/24 13:04:12;;;;;;;2.85;2.65;;;36.10;63.10;;;;;;4960684;29;20036;-71
2022/08/24 13:06:44;;;;;;;4.47;3.13;;;36.70;59.10;;;;;;4948149;29;20039;-70
2022/08/24 13:09:42;;;;;;;3.88;3.00;;;37.60;63.20;;;;;;4964288;28;20023;-70
2022/08/24 13:12:45;;;;;;;3.90;2.95;;;38.60;62.60;;;;;;4967905;28;20027;-71
2022/08/24 13:15:26;;;;;;;3.67;3.03;;;39.90;57.50;;;;;;4965288;28;20277;-71
2022/08/24 13:18:07;;;;;;;3.80;3.25;;;40.00;50.30;;;;;;4945606;29;20031;-71
2022/08/24 13:20:42;;;;;;;3.58;3.22;;;38.50;54.80;;;;;;4945927;29;20039;-71
2022/08/24 13:23:11;;;;;;;4.97;3.10;;;37.00;58.30;;;;;;4945510;29;20086;-71
2022/08/24 13:25:46;;;;;;;3.88;3.33;;;35.80;58.30;;;;;;4945921;29;20091;-71